sensor_id;sensor_type;location;lat;lon;timestamp;P1;durP1;ratioP1;P2;durP2;ratioP2
54271;SDS011;40184;53.362;5.216;2023-02-04T00:00:49;62.92;;;12.07;;
54271;SDS011;40184;53.362;5.216;2023-02-04T00:03:15;67.05;;;12.00;;
54271;SDS011;40184;53.362;5.216;2023-02-04T00:05:41;55.85;;;9.77;;
54271;SDS011;40184;53.362;5.216;2023-02-04T00:08:07;62.30;;;12.30;;
54271;SDS011;40184;53.362;5.216;2023-02-04T00:10:34;65.75;;;11.20;;
54271;SDS011;40184;53.362;5.216;2023-02-04T00:13:00;60.50;;;9.50;;
54271;SDS011;40184;53.362;5.216;2023-02-04T00:15:27;62.85;;;10.63;;
54271;SDS011;40184;53.362;5.216;2023-02-04T00:17:53;53.08;;;11.60;;
54271;SDS011;40184;53.362;5.216;2023-02-04T00:20:18;71.68;;;11.63;;
54271;SDS011;40184;53.362;5.216;2023-02-04T00:22:44;49.80;;;11.05;;
54271;SDS011;40184;53.362;5.216;2023-02-04T00:25:10;63.50;;;10.98;;
54271;SDS011;40184;53.362;5.216;2023-02-04T00:27:36;60.25;;;10.25;;
54271;SDS011;40184;53.362;5.216;2023-02-04T00:30:03;53.00;;;12.73;;
54271;SDS011;40184;53.362;5.216;2023-02-04T00:32:29;67.13;;;12.70;;
54271;SDS011;40184;53.362;5.216;2023-02-04T00:34:55;73.03;;;13.73;;
54271;SDS011;40184;53.362;5.216;2023-02-04T00:37:21;54.10;;;9.48;;
54271;SDS011;40184;53.362;5.216;2023-02-04T00:39:47;49.50;;;9.38;;
54271;SDS011;40184;53.362;5.216;2023-02-04T00:42:13;56.22;;;10.77;;
54271;SDS011;40184;53.362;5.216;2023-02-04T00:44:39;58.72;;;9.43;;
54271;SDS011;40184;53.362;5.216;2023-02-04T00:47:04;50.35;;;10.05;;
54271;SDS011;40184;53.362;5.216;2023-02-04T00:49:30;64.43;;;11.10;;
54271;SDS011;40184;53.362;5.216;2023-02-04T00:51:58;65.68;;;12.23;;
54271;SDS011;40184;53.362;5.216;2023-02-04T00:54:23;88.20;;;15.88;;
54271;SDS011;40184;53.362;5.216;2023-02-04T00:56:49;76.93;;;12.02;;
54271;SDS011;40184;53.362;5.216;2023-02-04T00:59:15;65.60;;;12.57;;
54271;SDS011;40184;53.362;5.216;2023-02-04T01:01:40;65.93;;;12.05;;
54271;SDS011;40184;53.362;5.216;2023-02-04T01:04:06;55.03;;;10.77;;
54271;SDS011;40184;53.362;5.216;2023-02-04T01:06:33;69.60;;;12.60;;
54271;SDS011;40184;53.362;5.216;2023-02-04T01:08:58;61.70;;;12.57;;
54271;SDS011;40184;53.362;5.216;2023-02-04T01:11:25;64.80;;;12.60;;
54271;SDS011;40184;53.362;5.216;2023-02-04T01:13:52;77.75;;;14.07;;
54271;SDS011;40184;53.362;5.216;2023-02-04T01:16:17;49.03;;;9.63;;
54271;SDS011;40184;53.362;5.216;2023-02-04T01:18:43;65.90;;;11.82;;
54271;SDS011;40184;53.362;5.216;2023-02-04T01:21:09;67.57;;;12.40;;
54271;SDS011;40184;53.362;5.216;2023-02-04T01:23:35;70.13;;;14.48;;
54271;SDS011;40184;53.362;5.216;2023-02-04T01:26:01;69.13;;;11.10;;
54271;SDS011;40184;53.362;5.216;2023-02-04T01:28:26;66.22;;;11.15;;
54271;SDS011;40184;53.362;5.216;2023-02-04T01:30:52;65.13;;;13.80;;
54271;SDS011;40184;53.362;5.216;2023-02-04T01:33:18;60.42;;;11.88;;
54271;SDS011;40184;53.362;5.216;2023-02-04T01:35:44;60.35;;;10.73;;
54271;SDS011;40184;53.362;5.216;2023-02-04T01:38:09;83.18;;;16.42;;
54271;SDS011;40184;53.362;5.216;2023-02-04T01:40:35;62.15;;;11.55;;
54271;SDS011;40184;53.362;5.216;2023-02-04T01:43:01;71.05;;;12.57;;
54271;SDS011;40184;53.362;5.216;2023-02-04T01:45:26;60.08;;;11.38;;
54271;SDS011;40184;53.362;5.216;2023-02-04T01:47:54;56.17;;;10.45;;
54271;SDS011;40184;53.362;5.216;2023-02-04T01:50:20;64.85;;;10.75;;
54271;SDS011;40184;53.362;5.216;2023-02-04T01:52:46;56.25;;;11.90;;
54271;SDS011;40184;53.362;5.216;2023-02-04T01:55:16;71.43;;;11.98;;
54271;SDS011;40184;53.362;5.216;2023-02-04T01:57:44;57.88;;;11.98;;
54271;SDS011;40184;53.362;5.216;2023-02-04T02:00:14;59.20;;;11.70;;
54271;SDS011;40184;53.362;5.216;2023-02-04T02:02:46;53.08;;;11.45;;
54271;SDS011;40184;53.362;5.216;2023-02-04T02:07:45;51.22;;;10.75;;
54271;SDS011;40184;53.362;5.216;2023-02-04T02:10:12;61.17;;;12.40;;
54271;SDS011;40184;53.362;5.216;2023-02-04T02:12:39;58.88;;;11.90;;
54271;SDS011;40184;53.362;5.216;2023-02-04T02:15:06;74.60;;;12.75;;
54271;SDS011;40184;53.362;5.216;2023-02-04T02:17:32;68.15;;;11.68;;
54271;SDS011;40184;53.362;5.216;2023-02-04T02:19:58;58.22;;;11.65;;
54271;SDS011;40184;53.362;5.216;2023-02-04T02:25:31;70.80;;;11.40;;
54271;SDS011;40184;53.362;5.216;2023-02-04T02:27:57;59.38;;;9.93;;
54271;SDS011;40184;53.362;5.216;2023-02-04T02:30:24;65.70;;;11.60;;
54271;SDS011;40184;53.362;5.216;2023-02-04T02:32:52;60.60;;;11.30;;
54271;SDS011;40184;53.362;5.216;2023-02-04T02:35:19;76.45;;;14.23;;
54271;SDS011;40184;53.362;5.216;2023-02-04T02:37:45;60.70;;;11.82;;
54271;SDS011;40184;53.362;5.216;2023-02-04T02:40:11;58.45;;;10.68;;
54271;SDS011;40184;53.362;5.216;2023-02-04T02:42:37;48.10;;;10.10;;
54271;SDS011;40184;53.362;5.216;2023-02-04T02:45:07;61.83;;;11.18;;
54271;SDS011;40184;53.362;5.216;2023-02-04T02:47:46;60.72;;;11.18;;
54271;SDS011;40184;53.362;5.216;2023-02-04T02:50:12;59.40;;;11.38;;
54271;SDS011;40184;53.362;5.216;2023-02-04T02:52:41;57.25;;;10.77;;
54271;SDS011;40184;53.362;5.216;2023-02-04T02:55:11;58.55;;;11.32;;
54271;SDS011;40184;53.362;5.216;2023-02-04T02:57:41;49.30;;;10.63;;
54271;SDS011;40184;53.362;5.216;2023-02-04T03:00:18;60.30;;;10.18;;
54271;SDS011;40184;53.362;5.216;2023-02-04T03:03:30;60.72;;;11.23;;
54271;SDS011;40184;53.362;5.216;2023-02-04T03:05:41;53.42;;;9.43;;
54271;SDS011;40184;53.362;5.216;2023-02-04T03:08:10;55.97;;;10.65;;
54271;SDS011;40184;53.362;5.216;2023-02-04T03:10:38;67.60;;;11.57;;
54271;SDS011;40184;53.362;5.216;2023-02-04T03:13:04;64.90;;;12.15;;
54271;SDS011;40184;53.362;5.216;2023-02-04T03:15:30;56.85;;;10.68;;
54271;SDS011;40184;53.362;5.216;2023-02-04T03:17:56;57.35;;;10.88;;
54271;SDS011;40184;53.362;5.216;2023-02-04T03:20:23;74.15;;;13.10;;
54271;SDS011;40184;53.362;5.216;2023-02-04T03:22:50;61.67;;;12.35;;
54271;SDS011;40184;53.362;5.216;2023-02-04T03:25:16;58.92;;;12.52;;
54271;SDS011;40184;53.362;5.216;2023-02-04T03:27:42;62.28;;;10.52;;
54271;SDS011;40184;53.362;5.216;2023-02-04T03:30:08;64.45;;;11.80;;
54271;SDS011;40184;53.362;5.216;2023-02-04T03:32:34;58.13;;;10.00;;
54271;SDS011;40184;53.362;5.216;2023-02-04T03:35:00;50.00;;;10.82;;
54271;SDS011;40184;53.362;5.216;2023-02-04T03:37:26;53.67;;;10.73;;
54271;SDS011;40184;53.362;5.216;2023-02-04T03:39:51;56.90;;;10.52;;
54271;SDS011;40184;53.362;5.216;2023-02-04T03:42:17;56.40;;;10.73;;
54271;SDS011;40184;53.362;5.216;2023-02-04T03:44:43;58.28;;;11.25;;
54271;SDS011;40184;53.362;5.216;2023-02-04T03:47:08;64.07;;;12.40;;
54271;SDS011;40184;53.362;5.216;2023-02-04T03:49:34;53.97;;;10.70;;
54271;SDS011;40184;53.362;5.216;2023-02-04T03:52:01;54.13;;;11.90;;
54271;SDS011;40184;53.362;5.216;2023-02-04T03:54:27;77.75;;;13.18;;
54271;SDS011;40184;53.362;5.216;2023-02-04T03:56:53;48.97;;;8.98;;
54271;SDS011;40184;53.362;5.216;2023-02-04T03:59:18;66.63;;;12.05;;
54271;SDS011;40184;53.362;5.216;2023-02-04T04:01:44;57.53;;;10.95;;
54271;SDS011;40184;53.362;5.216;2023-02-04T04:04:10;66.05;;;10.20;;
54271;SDS011;40184;53.362;5.216;2023-02-04T04:06:36;65.68;;;12.13;;
54271;SDS011;40184;53.362;5.216;2023-02-04T04:09:01;57.22;;;12.40;;
54271;SDS011;40184;53.362;5.216;2023-02-04T04:11:29;48.75;;;10.68;;
54271;SDS011;40184;53.362;5.216;2023-02-04T04:13:55;66.82;;;11.73;;
54271;SDS011;40184;53.362;5.216;2023-02-04T04:16:20;64.68;;;11.05;;
54271;SDS011;40184;53.362;5.216;2023-02-04T04:18:46;47.80;;;10.95;;
54271;SDS011;40184;53.362;5.216;2023-02-04T04:21:12;68.35;;;12.20;;
54271;SDS011;40184;53.362;5.216;2023-02-04T04:23:38;53.85;;;11.43;;
54271;SDS011;40184;53.362;5.216;2023-02-04T04:26:03;70.43;;;13.65;;
54271;SDS011;40184;53.362;5.216;2023-02-04T04:28:29;59.80;;;8.88;;
54271;SDS011;40184;53.362;5.216;2023-02-04T04:30:55;61.08;;;12.40;;
54271;SDS011;40184;53.362;5.216;2023-02-04T04:33:20;64.35;;;11.45;;
54271;SDS011;40184;53.362;5.216;2023-02-04T04:35:46;66.60;;;11.90;;
54271;SDS011;40184;53.362;5.216;2023-02-04T04:38:12;61.50;;;11.07;;
54271;SDS011;40184;53.362;5.216;2023-02-04T04:40:37;62.70;;;12.00;;
54271;SDS011;40184;53.362;5.216;2023-02-04T04:43:03;56.22;;;11.18;;
54271;SDS011;40184;53.362;5.216;2023-02-04T04:45:29;54.45;;;11.18;;
54271;SDS011;40184;53.362;5.216;2023-02-04T04:47:54;54.30;;;10.80;;
54271;SDS011;40184;53.362;5.216;2023-02-04T04:50:20;55.42;;;10.55;;
54271;SDS011;40184;53.362;5.216;2023-02-04T04:52:46;46.30;;;10.85;;
54271;SDS011;40184;53.362;5.216;2023-02-04T04:55:12;70.30;;;12.73;;
54271;SDS011;40184;53.362;5.216;2023-02-04T04:57:37;72.28;;;11.60;;
54271;SDS011;40184;53.362;5.216;2023-02-04T05:00:04;54.88;;;11.77;;
54271;SDS011;40184;53.362;5.216;2023-02-04T05:02:31;51.95;;;10.35;;
54271;SDS011;40184;53.362;5.216;2023-02-04T05:04:59;57.58;;;12.93;;
54271;SDS011;40184;53.362;5.216;2023-02-04T05:07:28;70.03;;;13.13;;
54271;SDS011;40184;53.362;5.216;2023-02-04T05:09:54;57.28;;;10.80;;
54271;SDS011;40184;53.362;5.216;2023-02-04T05:12:19;63.53;;;13.55;;
54271;SDS011;40184;53.362;5.216;2023-02-04T05:14:45;59.65;;;12.45;;
54271;SDS011;40184;53.362;5.216;2023-02-04T05:17:17;71.03;;;13.38;;
54271;SDS011;40184;53.362;5.216;2023-02-04T05:19:42;61.60;;;11.07;;
54271;SDS011;40184;53.362;5.216;2023-02-04T05:22:08;51.80;;;9.90;;
54271;SDS011;40184;53.362;5.216;2023-02-04T05:24:33;63.72;;;13.13;;
54271;SDS011;40184;53.362;5.216;2023-02-04T05:26:59;64.70;;;11.88;;
54271;SDS011;40184;53.362;5.216;2023-02-04T05:29:25;72.20;;;14.00;;
54271;SDS011;40184;53.362;5.216;2023-02-04T05:31:50;73.97;;;14.00;;
54271;SDS011;40184;53.362;5.216;2023-02-04T05:34:16;73.10;;;13.13;;
54271;SDS011;40184;53.362;5.216;2023-02-04T05:36:42;69.22;;;13.00;;
54271;SDS011;40184;53.362;5.216;2023-02-04T05:39:08;75.10;;;12.70;;
54271;SDS011;40184;53.362;5.216;2023-02-04T05:41:33;60.08;;;12.85;;
54271;SDS011;40184;53.362;5.216;2023-02-04T05:43:59;58.38;;;12.88;;
54271;SDS011;40184;53.362;5.216;2023-02-04T05:46:25;52.22;;;11.43;;
54271;SDS011;40184;53.362;5.216;2023-02-04T05:48:50;58.60;;;12.98;;
54271;SDS011;40184;53.362;5.216;2023-02-04T05:51:16;76.13;;;13.70;;
54271;SDS011;40184;53.362;5.216;2023-02-04T05:53:41;76.70;;;13.25;;
54271;SDS011;40184;53.362;5.216;2023-02-04T05:56:07;66.82;;;12.35;;
54271;SDS011;40184;53.362;5.216;2023-02-04T05:58:33;57.55;;;11.85;;
54271;SDS011;40184;53.362;5.216;2023-02-04T06:00:59;64.45;;;11.60;;
54271;SDS011;40184;53.362;5.216;2023-02-04T06:03:26;57.28;;;11.70;;
54271;SDS011;40184;53.362;5.216;2023-02-04T06:05:52;58.95;;;11.57;;
54271;SDS011;40184;53.362;5.216;2023-02-04T06:08:17;58.42;;;11.23;;
54271;SDS011;40184;53.362;5.216;2023-02-04T06:10:43;52.63;;;9.77;;
54271;SDS011;40184;53.362;5.216;2023-02-04T06:13:09;54.00;;;10.07;;
54271;SDS011;40184;53.362;5.216;2023-02-04T06:15:35;70.97;;;15.07;;
54271;SDS011;40184;53.362;5.216;2023-02-04T06:18:00;56.97;;;12.88;;
54271;SDS011;40184;53.362;5.216;2023-02-04T06:20:26;75.50;;;16.33;;
54271;SDS011;40184;53.362;5.216;2023-02-04T06:22:52;58.38;;;13.73;;
54271;SDS011;40184;53.362;5.216;2023-02-04T06:25:18;78.68;;;13.38;;
54271;SDS011;40184;53.362;5.216;2023-02-04T06:27:45;58.15;;;12.73;;
54271;SDS011;40184;53.362;5.216;2023-02-04T06:30:12;61.17;;;12.65;;
54271;SDS011;40184;53.362;5.216;2023-02-04T06:32:38;61.90;;;13.25;;
54271;SDS011;40184;53.362;5.216;2023-02-04T06:35:04;61.97;;;13.27;;
54271;SDS011;40184;53.362;5.216;2023-02-04T06:37:31;65.93;;;11.52;;
54271;SDS011;40184;53.362;5.216;2023-02-04T06:39:56;66.50;;;11.05;;
54271;SDS011;40184;53.362;5.216;2023-02-04T06:42:23;53.22;;;10.82;;
54271;SDS011;40184;53.362;5.216;2023-02-04T06:44:49;72.60;;;12.40;;
54271;SDS011;40184;53.362;5.216;2023-02-04T06:47:16;61.47;;;13.23;;
54271;SDS011;40184;53.362;5.216;2023-02-04T06:49:41;53.83;;;11.85;;
54271;SDS011;40184;53.362;5.216;2023-02-04T06:52:07;49.85;;;10.80;;
54271;SDS011;40184;53.362;5.216;2023-02-04T06:54:33;54.78;;;9.93;;
54271;SDS011;40184;53.362;5.216;2023-02-04T06:56:59;58.10;;;12.18;;
54271;SDS011;40184;53.362;5.216;2023-02-04T06:59:34;61.63;;;11.40;;
54271;SDS011;40184;53.362;5.216;2023-02-04T07:02:01;53.67;;;10.63;;
54271;SDS011;40184;53.362;5.216;2023-02-04T07:04:27;64.47;;;11.73;;
54271;SDS011;40184;53.362;5.216;2023-02-04T07:06:53;51.03;;;11.00;;
54271;SDS011;40184;53.362;5.216;2023-02-04T07:09:19;54.45;;;12.05;;
54271;SDS011;40184;53.362;5.216;2023-02-04T07:11:45;67.55;;;12.07;;
54271;SDS011;40184;53.362;5.216;2023-02-04T07:14:11;65.68;;;14.13;;
54271;SDS011;40184;53.362;5.216;2023-02-04T07:16:37;61.45;;;11.63;;
54271;SDS011;40184;53.362;5.216;2023-02-04T07:19:02;82.85;;;13.27;;
54271;SDS011;40184;53.362;5.216;2023-02-04T07:21:29;69.88;;;14.40;;
54271;SDS011;40184;53.362;5.216;2023-02-04T07:23:54;74.15;;;14.02;;
54271;SDS011;40184;53.362;5.216;2023-02-04T07:26:20;57.22;;;12.43;;
54271;SDS011;40184;53.362;5.216;2023-02-04T07:28:46;67.30;;;13.50;;
54271;SDS011;40184;53.362;5.216;2023-02-04T07:31:13;58.35;;;12.52;;
54271;SDS011;40184;53.362;5.216;2023-02-04T07:33:39;86.13;;;15.93;;
54271;SDS011;40184;53.362;5.216;2023-02-04T07:36:04;77.15;;;16.10;;
54271;SDS011;40184;53.362;5.216;2023-02-04T07:38:30;75.55;;;15.82;;
54271;SDS011;40184;53.362;5.216;2023-02-04T07:40:56;61.25;;;13.40;;
54271;SDS011;40184;53.362;5.216;2023-02-04T07:43:21;69.78;;;15.63;;
54271;SDS011;40184;53.362;5.216;2023-02-04T07:45:47;72.50;;;14.38;;
54271;SDS011;40184;53.362;5.216;2023-02-04T07:48:13;59.78;;;13.10;;
54271;SDS011;40184;53.362;5.216;2023-02-04T07:50:38;60.13;;;13.55;;
54271;SDS011;40184;53.362;5.216;2023-02-04T07:53:04;65.63;;;12.20;;
54271;SDS011;40184;53.362;5.216;2023-02-04T07:55:30;56.03;;;11.43;;
54271;SDS011;40184;53.362;5.216;2023-02-04T07:57:55;68.68;;;11.60;;
54271;SDS011;40184;53.362;5.216;2023-02-04T08:00:21;66.93;;;12.40;;
54271;SDS011;40184;53.362;5.216;2023-02-04T08:02:47;68.20;;;12.93;;
54271;SDS011;40184;53.362;5.216;2023-02-04T08:05:13;69.18;;;13.13;;
54271;SDS011;40184;53.362;5.216;2023-02-04T08:07:39;73.43;;;16.70;;
54271;SDS011;40184;53.362;5.216;2023-02-04T08:10:05;82.35;;;14.73;;
54271;SDS011;40184;53.362;5.216;2023-02-04T08:12:32;81.25;;;15.18;;
54271;SDS011;40184;53.362;5.216;2023-02-04T08:14:57;86.50;;;16.38;;
54271;SDS011;40184;53.362;5.216;2023-02-04T08:17:24;78.53;;;14.38;;
54271;SDS011;40184;53.362;5.216;2023-02-04T08:19:49;81.50;;;15.48;;
54271;SDS011;40184;53.362;5.216;2023-02-04T08:22:15;66.65;;;13.50;;
54271;SDS011;40184;53.362;5.216;2023-02-04T08:24:44;88.45;;;14.80;;
54271;SDS011;40184;53.362;5.216;2023-02-04T08:27:10;75.45;;;15.00;;
54271;SDS011;40184;53.362;5.216;2023-02-04T08:29:36;66.63;;;12.38;;
54271;SDS011;40184;53.362;5.216;2023-02-04T08:32:01;64.97;;;13.32;;
54271;SDS011;40184;53.362;5.216;2023-02-04T08:34:28;76.05;;;12.77;;
54271;SDS011;40184;53.362;5.216;2023-02-04T08:36:54;83.32;;;15.35;;
54271;SDS011;40184;53.362;5.216;2023-02-04T08:39:19;66.13;;;13.02;;
54271;SDS011;40184;53.362;5.216;2023-02-04T08:41:45;65.05;;;13.35;;
54271;SDS011;40184;53.362;5.216;2023-02-04T08:44:13;54.85;;;13.05;;
54271;SDS011;40184;53.362;5.216;2023-02-04T08:46:39;52.38;;;13.40;;
54271;SDS011;40184;53.362;5.216;2023-02-04T08:49:05;59.97;;;12.15;;
54271;SDS011;40184;53.362;5.216;2023-02-04T08:51:30;56.17;;;10.48;;
54271;SDS011;40184;53.362;5.216;2023-02-04T08:53:56;59.20;;;12.73;;
54271;SDS011;40184;53.362;5.216;2023-02-04T08:56:21;46.78;;;10.77;;
54271;SDS011;40184;53.362;5.216;2023-02-04T08:58:47;50.55;;;12.75;;
54271;SDS011;40184;53.362;5.216;2023-02-04T09:01:13;56.10;;;12.55;;
54271;SDS011;40184;53.362;5.216;2023-02-04T09:03:39;41.80;;;10.73;;
54271;SDS011;40184;53.362;5.216;2023-02-04T09:06:05;52.33;;;10.75;;
54271;SDS011;40184;53.362;5.216;2023-02-04T09:08:32;36.95;;;10.05;;
54271;SDS011;40184;53.362;5.216;2023-02-04T09:10:57;42.78;;;10.63;;
54271;SDS011;40184;53.362;5.216;2023-02-04T09:13:23;57.88;;;11.18;;
54271;SDS011;40184;53.362;5.216;2023-02-04T09:15:49;46.08;;;9.55;;
54271;SDS011;40184;53.362;5.216;2023-02-04T09:18:16;47.60;;;9.60;;
54271;SDS011;40184;53.362;5.216;2023-02-04T09:20:45;35.15;;;8.43;;
54271;SDS011;40184;53.362;5.216;2023-02-04T09:23:12;49.10;;;10.15;;
54271;SDS011;40184;53.362;5.216;2023-02-04T09:25:39;40.10;;;7.45;;
54271;SDS011;40184;53.362;5.216;2023-02-04T09:28:06;50.53;;;8.55;;
54271;SDS011;40184;53.362;5.216;2023-02-04T09:30:34;47.30;;;10.07;;
54271;SDS011;40184;53.362;5.216;2023-02-04T09:33:00;39.38;;;7.63;;
54271;SDS011;40184;53.362;5.216;2023-02-04T09:35:25;43.45;;;8.20;;
54271;SDS011;40184;53.362;5.216;2023-02-04T09:37:51;40.42;;;8.07;;
54271;SDS011;40184;53.362;5.216;2023-02-04T09:40:17;43.17;;;8.13;;
54271;SDS011;40184;53.362;5.216;2023-02-04T09:42:44;38.45;;;7.13;;
54271;SDS011;40184;53.362;5.216;2023-02-04T09:45:16;39.13;;;7.53;;
54271;SDS011;40184;53.362;5.216;2023-02-04T09:47:57;41.38;;;8.15;;
54271;SDS011;40184;53.362;5.216;2023-02-04T09:50:24;31.10;;;7.22;;
54271;SDS011;40184;53.362;5.216;2023-02-04T09:52:53;30.75;;;6.85;;
54271;SDS011;40184;53.362;5.216;2023-02-04T09:55:24;36.55;;;6.60;;
54271;SDS011;40184;53.362;5.216;2023-02-04T09:57:57;32.97;;;8.90;;
54271;SDS011;40184;53.362;5.216;2023-02-04T10:00:25;34.78;;;6.35;;
54271;SDS011;40184;53.362;5.216;2023-02-04T10:02:54;33.90;;;7.50;;
54271;SDS011;40184;53.362;5.216;2023-02-04T10:05:26;35.30;;;6.75;;
54271;SDS011;40184;53.362;5.216;2023-02-04T10:07:54;32.55;;;5.68;;
54271;SDS011;40184;53.362;5.216;2023-02-04T10:10:20;28.58;;;7.50;;
54271;SDS011;40184;53.362;5.216;2023-02-04T10:12:49;36.97;;;6.40;;
54271;SDS011;40184;53.362;5.216;2023-02-04T10:15:18;28.08;;;4.90;;
54271;SDS011;40184;53.362;5.216;2023-02-04T10:17:45;38.53;;;8.18;;
54271;SDS011;40184;53.362;5.216;2023-02-04T10:20:13;34.97;;;6.20;;
54271;SDS011;40184;53.362;5.216;2023-02-04T10:22:47;28.38;;;5.68;;
54271;SDS011;40184;53.362;5.216;2023-02-04T10:25:19;27.85;;;6.45;;
54271;SDS011;40184;53.362;5.216;2023-02-04T10:27:50;29.25;;;5.32;;
54271;SDS011;40184;53.362;5.216;2023-02-04T10:30:28;24.13;;;4.55;;
54271;SDS011;40184;53.362;5.216;2023-02-04T10:33:13;25.38;;;6.22;;
54271;SDS011;40184;53.362;5.216;2023-02-04T10:35:44;24.85;;;5.95;;
54271;SDS011;40184;53.362;5.216;2023-02-04T10:38:11;21.08;;;5.13;;
54271;SDS011;40184;53.362;5.216;2023-02-04T10:40:36;31.30;;;7.88;;
54271;SDS011;40184;53.362;5.216;2023-02-04T10:43:09;25.42;;;5.72;;
54271;SDS011;40184;53.362;5.216;2023-02-04T10:45:37;29.80;;;5.70;;
54271;SDS011;40184;53.362;5.216;2023-02-04T10:48:03;22.10;;;4.53;;
54271;SDS011;40184;53.362;5.216;2023-02-04T10:50:29;21.40;;;4.78;;
54271;SDS011;40184;53.362;5.216;2023-02-04T10:52:56;26.88;;;5.40;;
54271;SDS011;40184;53.362;5.216;2023-02-04T10:55:49;23.80;;;6.43;;
54271;SDS011;40184;53.362;5.216;2023-02-04T10:58:19;27.52;;;7.20;;
54271;SDS011;40184;53.362;5.216;2023-02-04T11:00:50;22.52;;;4.63;;
54271;SDS011;40184;53.362;5.216;2023-02-04T11:03:21;24.40;;;4.97;;
54271;SDS011;40184;53.362;5.216;2023-02-04T11:05:51;17.25;;;4.45;;
54271;SDS011;40184;53.362;5.216;2023-02-04T11:10:57;22.67;;;4.60;;
54271;SDS011;40184;53.362;5.216;2023-02-04T11:13:26;18.67;;;4.88;;
54271;SDS011;40184;53.362;5.216;2023-02-04T11:16:23;17.33;;;4.18;;
54271;SDS011;40184;53.362;5.216;2023-02-04T11:18:51;27.23;;;6.45;;
54271;SDS011;40184;53.362;5.216;2023-02-04T11:23:50;26.00;;;5.68;;
54271;SDS011;40184;53.362;5.216;2023-02-04T11:26:34;18.02;;;4.32;;
54271;SDS011;40184;53.362;5.216;2023-02-04T11:31:28;22.05;;;4.90;;
54271;SDS011;40184;53.362;5.216;2023-02-04T11:37:41;21.88;;;4.47;;
54271;SDS011;40184;53.362;5.216;2023-02-04T11:39:40;20.27;;;5.38;;
54271;SDS011;40184;53.362;5.216;2023-02-04T11:42:21;24.80;;;4.60;;
54271;SDS011;40184;53.362;5.216;2023-02-04T11:45:19;18.08;;;5.22;;
54271;SDS011;40184;53.362;5.216;2023-02-04T11:47:46;17.83;;;5.07;;
54271;SDS011;40184;53.362;5.216;2023-02-04T11:50:22;14.45;;;4.30;;
54271;SDS011;40184;53.362;5.216;2023-02-04T11:52:49;23.88;;;4.43;;
54271;SDS011;40184;53.362;5.216;2023-02-04T11:55:15;11.48;;;3.90;;
54271;SDS011;40184;53.362;5.216;2023-02-04T11:57:43;22.60;;;5.80;;
54271;SDS011;40184;53.362;5.216;2023-02-04T12:00:17;23.42;;;6.82;;
54271;SDS011;40184;53.362;5.216;2023-02-04T12:02:48;22.25;;;6.13;;
54271;SDS011;40184;53.362;5.216;2023-02-04T12:05:18;20.15;;;6.20;;
54271;SDS011;40184;53.362;5.216;2023-02-04T12:07:45;24.13;;;5.75;;
54271;SDS011;40184;53.362;5.216;2023-02-04T12:12:47;23.17;;;4.63;;
54271;SDS011;40184;53.362;5.216;2023-02-04T12:15:16;22.83;;;5.18;;
54271;SDS011;40184;53.362;5.216;2023-02-04T12:20:44;16.65;;;4.60;;
54271;SDS011;40184;53.362;5.216;2023-02-04T12:23:10;21.38;;;5.03;;
54271;SDS011;40184;53.362;5.216;2023-02-04T12:25:35;23.40;;;6.00;;
54271;SDS011;40184;53.362;5.216;2023-02-04T12:28:01;21.83;;;5.63;;
54271;SDS011;40184;53.362;5.216;2023-02-04T12:30:27;29.27;;;5.70;;
54271;SDS011;40184;53.362;5.216;2023-02-04T12:32:53;27.75;;;9.50;;
54271;SDS011;40184;53.362;5.216;2023-02-04T12:35:18;28.65;;;10.48;;
54271;SDS011;40184;53.362;5.216;2023-02-04T12:37:44;44.83;;;33.78;;
54271;SDS011;40184;53.362;5.216;2023-02-04T12:40:13;30.98;;;10.30;;
54271;SDS011;40184;53.362;5.216;2023-02-04T12:42:40;23.60;;;5.70;;
54271;SDS011;40184;53.362;5.216;2023-02-04T12:45:06;22.77;;;5.55;;
54271;SDS011;40184;53.362;5.216;2023-02-04T12:47:32;21.40;;;5.45;;
54271;SDS011;40184;53.362;5.216;2023-02-04T12:49:58;28.95;;;7.53;;
54271;SDS011;40184;53.362;5.216;2023-02-04T12:52:24;22.48;;;6.07;;
54271;SDS011;40184;53.362;5.216;2023-02-04T12:54:50;23.88;;;6.32;;
54271;SDS011;40184;53.362;5.216;2023-02-04T12:57:16;17.20;;;4.60;;
54271;SDS011;40184;53.362;5.216;2023-02-04T12:59:44;22.60;;;5.28;;
54271;SDS011;40184;53.362;5.216;2023-02-04T13:02:11;27.63;;;7.43;;
54271;SDS011;40184;53.362;5.216;2023-02-04T13:04:36;23.15;;;7.97;;
54271;SDS011;40184;53.362;5.216;2023-02-04T13:07:03;20.02;;;4.55;;
54271;SDS011;40184;53.362;5.216;2023-02-04T13:09:31;26.50;;;5.28;;
54271;SDS011;40184;53.362;5.216;2023-02-04T13:11:57;26.77;;;5.70;;
54271;SDS011;40184;53.362;5.216;2023-02-04T13:14:22;26.25;;;6.05;;
54271;SDS011;40184;53.362;5.216;2023-02-04T13:16:48;27.67;;;7.22;;
54271;SDS011;40184;53.362;5.216;2023-02-04T13:19:14;31.52;;;6.80;;
54271;SDS011;40184;53.362;5.216;2023-02-04T13:21:39;22.23;;;6.90;;
54271;SDS011;40184;53.362;5.216;2023-02-04T13:24:06;28.33;;;8.70;;
54271;SDS011;40184;53.362;5.216;2023-02-04T13:26:31;29.55;;;6.63;;
54271;SDS011;40184;53.362;5.216;2023-02-04T13:28:57;22.70;;;4.75;;
54271;SDS011;40184;53.362;5.216;2023-02-04T13:31:23;21.00;;;5.38;;
54271;SDS011;40184;53.362;5.216;2023-02-04T13:33:48;24.30;;;6.78;;
54271;SDS011;40184;53.362;5.216;2023-02-04T13:36:14;33.15;;;12.15;;
54271;SDS011;40184;53.362;5.216;2023-02-04T13:38:40;28.77;;;6.28;;
54271;SDS011;40184;53.362;5.216;2023-02-04T13:41:05;29.65;;;7.45;;
54271;SDS011;40184;53.362;5.216;2023-02-04T13:43:31;27.15;;;6.35;;
54271;SDS011;40184;53.362;5.216;2023-02-04T13:45:57;24.60;;;5.00;;
54271;SDS011;40184;53.362;5.216;2023-02-04T13:48:23;23.83;;;6.65;;
54271;SDS011;40184;53.362;5.216;2023-02-04T13:50:48;22.20;;;4.97;;
54271;SDS011;40184;53.362;5.216;2023-02-04T13:53:17;27.38;;;4.88;;
54271;SDS011;40184;53.362;5.216;2023-02-04T13:55:42;23.65;;;8.98;;
54271;SDS011;40184;53.362;5.216;2023-02-04T13:58:08;25.30;;;9.20;;
54271;SDS011;40184;53.362;5.216;2023-02-04T14:00:34;29.60;;;10.70;;
54271;SDS011;40184;53.362;5.216;2023-02-04T14:02:59;36.88;;;12.57;;
54271;SDS011;40184;53.362;5.216;2023-02-04T14:05:25;47.33;;;14.38;;
54271;SDS011;40184;53.362;5.216;2023-02-04T14:07:51;28.45;;;6.93;;
54271;SDS011;40184;53.362;5.216;2023-02-04T14:10:17;38.65;;;11.55;;
54271;SDS011;40184;53.362;5.216;2023-02-04T14:12:43;27.63;;;6.95;;
54271;SDS011;40184;53.362;5.216;2023-02-04T14:15:09;32.33;;;11.13;;
54271;SDS011;40184;53.362;5.216;2023-02-04T14:17:35;45.47;;;13.63;;
54271;SDS011;40184;53.362;5.216;2023-02-04T14:20:00;36.78;;;14.13;;
54271;SDS011;40184;53.362;5.216;2023-02-04T14:22:29;36.20;;;11.20;;
54271;SDS011;40184;53.362;5.216;2023-02-04T14:24:55;31.27;;;9.27;;
54271;SDS011;40184;53.362;5.216;2023-02-04T14:27:21;42.28;;;7.72;;
54271;SDS011;40184;53.362;5.216;2023-02-04T14:29:47;28.50;;;8.57;;
54271;SDS011;40184;53.362;5.216;2023-02-04T14:32:12;36.50;;;8.60;;
54271;SDS011;40184;53.362;5.216;2023-02-04T14:34:38;34.25;;;7.30;;
54271;SDS011;40184;53.362;5.216;2023-02-04T14:37:04;35.53;;;9.50;;
54271;SDS011;40184;53.362;5.216;2023-02-04T14:39:29;36.85;;;11.23;;
54271;SDS011;40184;53.362;5.216;2023-02-04T14:41:55;37.22;;;9.65;;
54271;SDS011;40184;53.362;5.216;2023-02-04T14:44:21;37.33;;;8.70;;
54271;SDS011;40184;53.362;5.216;2023-02-04T14:46:47;46.05;;;7.85;;